SBOSBO ADB / LTBJ
Speedbird OnlineSpeedbird Online ADB / LTBJ

Adnan Menderes International Airport
09:45 18°C

Location Izmir, Turkey
Latitude: 38.2924003601
Longitude: 27.156999588
Web Airport Website | Wikipedia
Altitude 126 Meter / 412 Feet
Distance 2,564 KM / 1,593 Miles
from London.
Time Zone UTC +3 hours (Europe/Istanbul)
Codes IATA: ADB
ICAO: LTBJ
Currency £1 equals TRY 21.04
Runways
RunwayLength (m)Surface
16L3240Asphalt
16R3240Concrete
34L3240Concrete
34R3240Asphalt
Radio
TypeDescriptionFrequency
APPMENDERES APP119.5
APPMENDERES APP134.2
ATISMENDERES ATIS129.2
GNDMENDERES GND121.9
RMPMENDERES RAMP121.7
TWRMENDERES TWR118.1
Live ATC
METAR LTBJ 060620Z 34018KT CAVOK 18/07 Q1018 NOSIG RMK RWY16 35017KT
TAF TAF LTBJ 060440Z 0606/0706 35015KT CAVOK BECMG 0609/0613 01020G35KT SCT035 SCT100 BECMG 0621/0623 35015KT
Weather As Of 06 Oct 2022 09:45
Description Clear sky
Wind 33 km/h from North (340°)
Cloud Cover 0%
Precipitation Rain: none, Snow: none
Sunrise 07:11
Sunset 18:47
Lounges Primeclass Lounge, International
Rotations During the last 90 days there were
12 flights from LGW
12 flights to LGW


© 2017-2022 Speedbird Online